Time;durP1;ratioP1;P1;durP2;ratioP2;P2;SDS_P1;SDS_P2;PMS_P1;PMS_P2;Temp;Humidity;BMP_temperature;BMP_pressure;BME280_temperature;BME280_humidity;BME280_pressure;Samples;Min_cycle;Max_cycle;Signal;HPM_P1;HPM_P2
2022/06/24 00:00:09;;;;;;;3.92;0.40;;;20.00;99.90;;;;;;4973423;28;20050;-92
2022/06/24 00:02:36;;;;;;;1.17;0.50;;;20.10;99.90;;;;;;4975517;28;20030;-91
2022/06/24 00:05:06;;;;;;;1.25;0.17;;;20.00;99.90;;;;;;4972639;28;20026;-92
2022/06/24 00:07:50;;;;;;;1.55;0.32;;;20.00;99.90;;;;;;4984147;28;20023;-92
2022/06/24 00:10:18;;;;;;;0.98;0.30;;;20.00;99.90;;;;;;5001154;28;20499;-92
2022/06/24 00:12:45;;;;;;;1.90;0.30;;;20.00;99.90;;;;;;4974897;28;20510;-92
2022/06/24 00:15:12;;;;;;;1.90;0.60;;;19.90;99.90;;;;;;4974904;28;20031;-92
2022/06/24 00:17:42;;;;;;;1.52;0.40;;;19.70;99.90;;;;;;4971711;28;20038;-93
2022/06/24 00:20:14;;;;;;;0.47;0.20;;;19.70;99.90;;;;;;5027842;23;20047;-89
2022/06/24 00:22:44;;;;;;;1.02;0.35;;;19.60;99.90;;;;;;4986254;28;20143;-88
2022/06/24 00:25:21;;;;;;;0.70;0.30;;;19.70;99.90;;;;;;4974881;28;20109;-89
2022/06/24 00:28:13;;;;;;;2.15;0.45;;;19.70;99.90;;;;;;4970522;28;20034;-90
2022/06/24 00:30:45;;;;;;;1.00;0.30;;;19.60;99.90;;;;;;4975733;28;20139;-89
2022/06/24 00:33:15;;;;;;;;;;;19.50;99.90;;;;;;4976090;28;20027;-89
2022/06/24 00:35:51;;;;;;;2.08;0.50;;;19.50;99.90;;;;;;4986322;28;19921;-88
2022/06/24 00:38:31;;;;;;;0.55;0.20;;;19.50;99.90;;;;;;4956500;28;20400;-90
2022/06/24 00:41:07;;;;;;;4.13;0.63;;;19.50;99.90;;;;;;4968031;28;20031;-89
2022/06/24 00:43:37;;;;;;;1.55;0.50;;;19.40;99.90;;;;;;4965267;28;20027;-89
2022/06/24 00:46:23;;;;;;;3.08;0.25;;;19.50;99.90;;;;;;4976371;28;20023;-89
2022/06/24 00:48:51;;;;;;;1.33;0.35;;;19.50;99.90;;;;;;4945989;28;20031;-90
2022/06/24 00:51:18;;;;;;;1.55;0.30;;;19.30;99.90;;;;;;4967154;28;20027;-89
2022/06/24 00:53:50;;;;;;;3.08;0.30;;;19.40;99.90;;;;;;4970809;28;20026;-89
2022/06/24 00:56:21;;;;;;;1.50;0.40;;;19.40;99.90;;;;;;4958979;28;20370;-89
2022/06/24 00:58:57;;;;;;;1.20;0.20;;;19.30;99.90;;;;;;4967504;28;20024;-89
2022/06/24 01:01:31;;;;;;;1.55;0.40;;;19.20;99.90;;;;;;4981227;28;20030;-89
2022/06/24 01:03:59;;;;;;;0.65;0.20;;;19.20;99.90;;;;;;4979343;28;20033;-89
2022/06/24 01:06:26;;;;;;;4.60;0.40;;;19.20;99.90;;;;;;4981199;28;20031;-89
2022/06/24 01:08:52;;;;;;;3.15;0.40;;;19.20;99.90;;;;;;4976544;28;20573;-89
2022/06/24 01:11:53;;;;;;;3.55;0.40;;;19.00;99.90;;;;;;4975195;28;20027;-89
2022/06/24 01:14:19;;;;;;;1.17;0.40;;;19.10;99.90;;;;;;4959607;28;20246;-90
2022/06/24 01:16:45;;;;;;;2.58;0.52;;;18.90;99.90;;;;;;4959415;28;20035;-89
2022/06/24 01:19:16;;;;;;;2.22;0.50;;;18.80;99.90;;;;;;4966883;28;20030;-89
2022/06/24 01:21:44;;;;;;;2.08;0.40;;;18.70;99.90;;;;;;4961830;28;20039;-89
2022/06/24 01:24:15;;;;;;;2.70;0.50;;;18.60;99.90;;;;;;4967513;28;20035;-90
2022/06/24 01:26:46;;;;;;;3.92;0.50;;;18.60;99.90;;;;;;4973618;28;20099;-89
2022/06/24 01:29:12;;;;;;;1.45;0.30;;;18.70;99.90;;;;;;4972192;28;20096;-89
2022/06/24 01:31:41;;;;;;;1.90;0.47;;;18.50;99.90;;;;;;4977054;28;20493;-89
2022/06/24 01:34:08;;;;;;;1.33;0.60;;;18.40;99.90;;;;;;4961447;28;20434;-90
2022/06/24 01:36:34;;;;;;;1.40;0.40;;;18.40;99.90;;;;;;4963830;28;20468;-91
2022/06/24 01:39:00;;;;;;;2.20;0.77;;;18.30;99.90;;;;;;4978031;28;20085;-89
2022/06/24 01:41:26;;;;;;;2.03;0.80;;;18.30;99.90;;;;;;4963242;28;20082;-90
2022/06/24 01:43:54;;;;;;;1.55;0.70;;;18.20;99.90;;;;;;4977403;28;20549;-90
2022/06/24 01:46:20;;;;;;;3.15;0.70;;;18.00;99.90;;;;;;4970457;28;20023;-90
2022/06/24 01:48:46;;;;;;;2.83;0.40;;;18.00;99.90;;;;;;4961827;28;20034;-92
2022/06/24 01:51:13;;;;;;;2.13;0.63;;;18.00;99.90;;;;;;4967839;28;20118;-90
2022/06/24 01:53:39;;;;;;;2.25;0.57;;;18.00;99.90;;;;;;4964964;28;20031;-90
2022/06/24 01:56:05;;;;;;;0.73;0.30;;;18.00;99.90;;;;;;4960667;28;20031;-90
2022/06/24 01:58:31;;;;;;;1.73;0.50;;;18.10;99.90;;;;;;4977658;28;20030;-91
2022/06/24 02:00:56;;;;;;;2.45;0.95;;;18.10;99.90;;;;;;4962045;28;20592;-91
2022/06/24 02:03:22;;;;;;;2.30;0.73;;;18.20;99.90;;;;;;4963785;28;20019;-89
2022/06/24 02:05:50;;;;;;;1.52;0.60;;;18.20;99.90;;;;;;4962991;28;20047;-90
2022/06/24 02:08:16;;;;;;;2.53;0.80;;;18.20;99.90;;;;;;4963944;28;20552;-90
2022/06/24 02:13:30;;;;;;;2.28;0.70;;;18.20;99.90;;;;;;4965661;28;20551;-91
2022/06/24 02:16:03;;;;;;;1.50;0.50;;;18.20;99.90;;;;;;4977426;28;20031;-91
2022/06/24 02:18:31;;;;;;;2.03;0.70;;;18.20;99.90;;;;;;4978035;28;20023;-90
2022/06/24 02:20:58;;;;;;;4.35;0.75;;;18.20;99.90;;;;;;4965812;28;20054;-90
2022/06/24 02:23:25;;;;;;;2.83;0.50;;;18.30;99.90;;;;;;4958017;28;20030;-91
2022/06/24 02:25:52;;;;;;;2.00;0.50;;;18.20;99.90;;;;;;4969406;28;20042;-90
2022/06/24 02:28:18;;;;;;;1.63;0.68;;;18.20;99.90;;;;;;4965259;28;20031;-91
2022/06/24 02:30:45;;;;;;;2.03;0.57;;;18.20;99.90;;;;;;4977879;28;20063;-91
2022/06/24 02:33:14;;;;;;;1.95;0.50;;;18.10;99.90;;;;;;4959643;28;20027;-90
2022/06/24 02:35:41;;;;;;;1.25;0.50;;;18.10;99.90;;;;;;4977905;28;20038;-91
2022/06/24 02:38:07;;;;;;;1.30;0.63;;;18.00;99.90;;;;;;4961762;28;20037;-90
2022/06/24 02:40:48;;;;;;;4.82;0.77;;;17.90;99.90;;;;;;4962836;28;20086;-90
2022/06/24 02:43:35;;;;;;;5.23;0.93;;;17.80;99.90;;;;;;4983055;28;20027;-91
2022/06/24 02:46:03;;;;;;;1.65;0.52;;;17.80;99.90;;;;;;4961027;28;20279;-91
2022/06/24 02:48:31;;;;;;;2.65;1.20;;;17.90;99.90;;;;;;4977199;28;20082;-91
2022/06/24 02:50:59;;;;;;;2.22;0.50;;;17.80;99.90;;;;;;4979342;28;20050;-90
2022/06/24 02:53:27;;;;;;;1.83;0.70;;;17.80;99.90;;;;;;4961044;28;20082;-89
2022/06/24 02:55:55;;;;;;;2.90;0.60;;;17.60;99.90;;;;;;4957118;28;20028;-90
2022/06/24 02:58:21;;;;;;;1.70;0.60;;;17.60;99.90;;;;;;4974705;28;20023;-90
2022/06/24 03:00:47;;;;;;;1.92;0.68;;;17.50;99.90;;;;;;4957286;28;20062;-91
2022/06/24 03:03:15;;;;;;;1.52;0.55;;;17.50;99.90;;;;;;4969582;28;20483;-92
2022/06/24 03:05:42;;;;;;;3.65;0.85;;;17.50;99.90;;;;;;4977108;28;20355;-92
2022/06/24 03:08:11;;;;;;;2.30;0.80;;;17.30;99.90;;;;;;4961874;28;20026;-91
2022/06/24 03:10:38;;;;;;;5.45;1.08;;;17.20;99.90;;;;;;4959790;28;20114;-91
2022/06/24 03:13:03;;;;;;;1.25;0.57;;;17.20;99.90;;;;;;4974419;28;20019;-91
2022/06/24 03:15:32;;;;;;;2.55;0.70;;;17.20;99.90;;;;;;4965157;28;20034;-91
2022/06/24 03:17:59;;;;;;;4.00;1.05;;;17.10;99.90;;;;;;4965422;28;20042;-92
2022/06/24 03:20:31;;;;;;;1.92;0.50;;;17.10;99.90;;;;;;4976449;28;20082;-91
2022/06/24 03:22:57;;;;;;;1.90;0.50;;;17.00;99.90;;;;;;4963789;28;20027;-91
2022/06/24 03:25:23;;;;;;;2.15;0.57;;;17.00;99.90;;;;;;4961186;28;20049;-91
2022/06/24 03:27:50;;;;;;;1.98;0.57;;;17.00;99.90;;;;;;4961892;28;20031;-92
2022/06/24 03:30:15;;;;;;;3.00;0.57;;;17.10;99.90;;;;;;4977991;28;20031;-91
2022/06/24 03:32:42;;;;;;;2.25;0.73;;;17.10;99.90;;;;;;4980497;28;20042;-91
2022/06/24 03:35:08;;;;;;;1.38;0.55;;;17.10;99.90;;;;;;4962119;28;20039;-92
2022/06/24 03:37:34;;;;;;;2.90;0.80;;;17.10;99.90;;;;;;4972918;28;20030;-91
2022/06/24 03:40:02;;;;;;;1.58;0.60;;;17.20;99.90;;;;;;4978502;28;20066;-92
2022/06/24 03:42:28;;;;;;;3.05;0.90;;;17.00;99.90;;;;;;4970132;28;20086;-91
2022/06/24 03:44:54;;;;;;;1.67;0.65;;;17.10;99.90;;;;;;4963794;28;20055;-92
2022/06/24 03:47:20;;;;;;;3.53;0.57;;;17.00;99.90;;;;;;4967339;28;20023;-91
2022/06/24 03:49:46;;;;;;;2.72;0.98;;;17.00;99.90;;;;;;4961126;28;20031;-92
2022/06/24 03:52:12;;;;;;;4.20;0.75;;;17.10;99.90;;;;;;4979167;28;20705;-91
2022/06/24 03:54:38;;;;;;;4.13;0.80;;;17.20;99.90;;;;;;4973930;28;20028;-91
2022/06/24 03:57:04;;;;;;;2.65;0.50;;;17.20;99.90;;;;;;4971232;28;20111;-92
2022/06/24 03:59:31;;;;;;;1.45;0.43;;;17.30;99.90;;;;;;4959449;28;20035;-92
2022/06/24 04:02:00;;;;;;;3.03;0.75;;;17.20;99.90;;;;;;4961610;28;20042;-92
2022/06/24 04:04:27;;;;;;;1.23;0.30;;;17.20;99.90;;;;;;4956771;28;20027;-91
2022/06/24 04:06:53;;;;;;;4.45;1.08;;;17.10;99.90;;;;;;4975132;28;20031;-92
2022/06/24 04:09:19;;;;;;;1.05;0.60;;;17.10;99.90;;;;;;4968098;28;20051;-92
2022/06/24 04:11:44;;;;;;;1.58;0.68;;;17.00;99.90;;;;;;4977600;28;20054;-92
2022/06/24 04:14:10;;;;;;;0.95;0.40;;;16.90;99.90;;;;;;4962331;28;20033;-91
2022/06/24 04:16:39;;;;;;;1.77;0.63;;;17.00;99.90;;;;;;4958844;28;20035;-92
2022/06/24 04:19:04;;;;;;;1.75;0.43;;;17.00;99.90;;;;;;4970649;28;20027;-91
2022/06/24 04:21:31;;;;;;;5.53;1.33;;;17.10;99.90;;;;;;4964931;28;20676;-89
2022/06/24 04:23:57;;;;;;;2.05;0.65;;;17.10;99.90;;;;;;4983275;28;20130;-89
2022/06/24 04:26:22;;;;;;;3.42;0.80;;;17.20;99.90;;;;;;4980971;28;20411;-89
2022/06/24 04:28:50;;;;;;;2.33;0.55;;;17.20;99.90;;;;;;4965110;28;20070;-89
2022/06/24 04:31:15;;;;;;;1.83;0.80;;;17.30;99.90;;;;;;4967593;28;20407;-90
2022/06/24 04:33:41;;;;;;;2.75;0.43;;;17.40;99.90;;;;;;4977442;28;20032;-89
2022/06/24 04:36:11;;;;;;;2.10;0.68;;;17.30;99.90;;;;;;4963979;28;20032;-90
2022/06/24 04:38:40;;;;;;;0.85;0.43;;;17.30;99.90;;;;;;4981434;28;20027;-88
2022/06/24 04:41:13;;;;;;;2.13;0.52;;;17.40;99.90;;;;;;4971077;28;20480;-89
2022/06/24 04:43:39;;;;;;;3.50;0.50;;;17.40;99.90;;;;;;4976080;28;20511;-90
2022/06/24 04:46:05;;;;;;;2.20;0.68;;;17.40;99.90;;;;;;4959201;28;20031;-92
2022/06/24 04:48:31;;;;;;;3.60;0.93;;;17.40;99.90;;;;;;4959565;28;20079;-92
2022/06/24 04:50:57;;;;;;;2.80;0.70;;;17.50;99.90;;;;;;4978096;28;20530;-92
2022/06/24 04:53:23;;;;;;;2.65;0.70;;;17.50;99.90;;;;;;4963716;28;20026;-92
2022/06/24 04:55:48;;;;;;;1.63;0.50;;;18.00;99.90;;;;;;4976774;28;20035;-92
2022/06/24 04:58:16;;;;;;;3.00;0.70;;;17.70;99.90;;;;;;4960288;28;20074;-91
2022/06/24 05:00:42;;;;;;;2.47;0.80;;;17.80;99.90;;;;;;4972658;28;20042;-91
2022/06/24 05:03:07;;;;;;;3.05;0.60;;;17.90;99.90;;;;;;4963514;28;20118;-90
2022/06/24 05:05:33;;;;;;;5.20;1.00;;;18.00;99.90;;;;;;4973879;28;20042;-91
2022/06/24 05:07:59;;;;;;;4.00;0.80;;;18.20;99.90;;;;;;4956711;28;20026;-92
2022/06/24 05:10:24;;;;;;;4.22;0.93;;;18.30;99.90;;;;;;4967444;28;20027;-90
2022/06/24 05:12:50;;;;;;;2.60;0.68;;;18.40;99.90;;;;;;4953119;28;20397;-89
2022/06/24 05:15:16;;;;;;;2.97;0.80;;;18.50;99.90;;;;;;4977239;28;20031;-92
2022/06/24 05:17:41;;;;;;;1.45;0.47;;;18.50;99.90;;;;;;4975947;28;20035;-92
2022/06/24 05:20:08;;;;;;;3.90;1.00;;;18.60;99.90;;;;;;4954969;28;20035;-92
2022/06/24 05:22:34;;;;;;;3.17;0.90;;;18.60;99.90;;;;;;4976153;28;20019;-91
2022/06/24 05:25:01;;;;;;;2.17;0.57;;;18.60;99.90;;;;;;4954869;28;20027;-91
2022/06/24 05:27:27;;;;;;;2.00;0.65;;;18.60;99.90;;;;;;4974644;28;20020;-90
2022/06/24 05:29:57;;;;;;;2.22;0.57;;;18.70;99.90;;;;;;4974725;28;20023;-90
2022/06/24 05:32:24;;;;;;;3.00;0.70;;;18.80;99.90;;;;;;4956627;28;20027;-89
2022/06/24 05:34:52;;;;;;;3.28;0.50;;;19.10;99.90;;;;;;4949756;28;20069;-92
2022/06/24 05:37:17;;;;;;;2.85;0.65;;;19.30;99.90;;;;;;4961270;28;20497;-91
2022/06/24 05:39:57;;;;;;;1.85;0.60;;;19.50;99.90;;;;;;4950232;28;20035;-92
2022/06/24 05:42:22;;;;;;;3.08;1.00;;;19.80;99.90;;;;;;4971386;28;20034;-92
2022/06/24 05:44:54;;;;;;;2.08;0.85;;;19.80;99.90;;;;;;4971845;28;20042;-92
2022/06/24 05:47:22;;;;;;;2.17;0.50;;;19.90;99.90;;;;;;4958793;28;20030;-92
2022/06/24 05:49:48;;;;;;;3.55;1.17;;;19.90;99.90;;;;;;4968581;28;20127;-92
2022/06/24 05:52:14;;;;;;;2.28;1.13;;;19.90;99.90;;;;;;4952241;28;20097;-91
2022/06/24 05:57:24;;;;;;;1.83;0.50;;;20.00;99.90;;;;;;4957249;28;20038;-91
2022/06/24 05:59:49;;;;;;;3.65;0.60;;;20.00;99.90;;;;;;4970938;28;20035;-90
2022/06/24 06:02:15;;;;;;;1.73;0.82;;;20.10;99.90;;;;;;4954899;28;20079;-93
2022/06/24 06:04:41;;;;;;;4.57;0.70;;;20.10;99.90;;;;;;4969680;28;20035;-89
2022/06/24 06:07:06;;;;;;;3.30;0.65;;;20.10;99.90;;;;;;4959354;28;20514;-92
2022/06/24 06:09:33;;;;;;;3.92;0.65;;;20.10;99.90;;;;;;4960502;28;20026;-90
2022/06/24 06:11:59;;;;;;;2.30;0.63;;;20.10;99.90;;;;;;4959787;28;20022;-91
2022/06/24 06:14:25;;;;;;;3.90;0.95;;;20.10;99.90;;;;;;4961995;28;20043;-92
2022/06/24 06:16:50;;;;;;;3.88;1.20;;;20.00;99.90;;;;;;4957343;28;20040;-92
2022/06/24 06:19:16;;;;;;;2.38;0.85;;;19.90;99.90;;;;;;4957075;28;20118;-91
2022/06/24 06:21:42;;;;;;;3.08;0.40;;;19.80;99.90;;;;;;4960876;28;20059;-91
2022/06/24 06:24:08;;;;;;;1.77;0.55;;;19.80;99.90;;;;;;4960886;28;20118;-92
2022/06/24 06:26:33;;;;;;;3.60;0.90;;;19.90;99.90;;;;;;4963451;28;20035;-92
2022/06/24 06:28:59;;;;;;;4.15;1.10;;;20.10;99.90;;;;;;4957618;28;20023;-92
2022/06/24 06:31:25;;;;;;;3.40;0.65;;;20.20;99.90;;;;;;4961968;28;20086;-91
2022/06/24 06:33:51;;;;;;;2.88;0.70;;;20.40;99.90;;;;;;4951926;28;20112;-92
2022/06/24 06:36:17;;;;;;;4.43;1.05;;;20.50;99.90;;;;;;4955677;28;20034;-90
2022/06/24 06:38:42;;;;;;;1.70;0.77;;;20.50;99.90;;;;;;4983228;28;20056;-92
2022/06/24 06:41:08;;;;;;;4.60;0.80;;;20.50;99.90;;;;;;4959854;28;20090;-90
2022/06/24 06:43:34;;;;;;;5.15;1.00;;;20.50;99.90;;;;;;4957278;28;20093;-92
2022/06/24 06:46:00;;;;;;;4.80;1.17;;;20.70;99.90;;;;;;4965793;28;20484;-92
2022/06/24 06:48:26;;;;;;;1.58;0.40;;;20.70;99.90;;;;;;4969886;28;20048;-92
2022/06/24 06:50:57;;;;;;;1.70;0.55;;;20.80;99.90;;;;;;4960648;28;20114;-92
2022/06/24 06:53:28;;;;;;;2.37;0.60;;;20.70;99.90;;;;;;4959369;28;20054;-92
2022/06/24 06:55:57;;;;;;;2.20;0.80;;;20.70;99.90;;;;;;4977320;28;20034;-91
2022/06/24 11:34:48;;;;;;;2.13;0.50;;;25.00;99.90;;;;;;734395;22;20357;-85
2022/06/24 11:44:42;;;;;;;1.60;0.65;;;25.10;99.90;;;;;;5029846;28;20026;-91
2022/06/24 11:47:17;;;;;;;0.75;0.35;;;25.20;99.90;;;;;;5006718;28;20520;-91
2022/06/24 11:53:21;;;;;;;1.48;0.47;;;25.50;99.90;;;;;;4992224;28;20034;-90
2022/06/24 11:56:24;;;;;;;1.27;0.40;;;25.20;99.90;;;;;;5008322;28;20437;-90
2022/06/24 12:02:35;;;;;;;1.05;0.45;;;25.10;99.90;;;;;;4917494;29;20031;-90
2022/06/24 12:05:10;;;;;;;1.45;0.50;;;24.80;99.90;;;;;;4954282;28;20034;-91
2022/06/24 12:07:49;;;;;;;1.73;0.60;;;24.70;99.90;;;;;;4974956;28;20065;-90
2022/06/24 12:10:47;;;;;;;1.83;0.68;;;24.60;99.90;;;;;;5001109;28;20034;-91
2022/06/24 12:24:27;;;;;;;;;;;;;;;;;;;;;
2022/06/24 12:31:38;;;;;;;1.98;0.50;;;24.60;99.90;;;;;;4913037;28;20037;-88
2022/06/24 12:35:12;;;;;;;2.47;0.55;;;24.50;99.90;;;;;;4941438;28;20064;-89
2022/06/24 13:30:14;;;;;;;0.80;0.28;;;22.00;99.90;;;;;;1327014;22;20309;-89
2022/06/24 13:33:20;;;;;;;1.35;0.40;;;21.90;99.90;;;;;;5037005;28;20032;-93
2022/06/24 13:36:01;;;;;;;2.20;0.65;;;21.70;99.90;;;;;;5033052;28;20478;-92
2022/06/24 13:38:51;;;;;;;;;;;;;;;;;;;;;
2022/06/24 13:59:34;;;;;;;0.57;0.40;;;21.40;99.90;;;;;;5036231;28;20045;-91
2022/06/24 14:02:27;;;;;;;1.65;0.55;;;21.30;99.90;;;;;;5012304;28;20030;-91
2022/06/24 14:05:04;;;;;;;2.03;0.43;;;21.10;99.90;;;;;;5014108;28;20034;-92
2022/06/24 14:07:52;;;;;;;1.73;0.80;;;21.00;99.90;;;;;;5010916;28;20128;-92
2022/06/24 14:10:39;;;;;;;2.75;0.60;;;20.90;99.90;;;;;;5019192;28;20779;-92
2022/06/24 14:13:32;;;;;;;1.33;0.50;;;20.80;99.90;;;;;;5017771;28;20032;-92
2022/06/24 14:16:01;;;;;;;1.95;0.50;;;20.70;99.90;;;;;;5016364;28;20124;-88
2022/06/24 15:08:05;;;;;;;0.40;0.20;;;17.50;99.90;;;;;;4079519;26;20132;-90
2022/06/24 15:10:36;;;;;;;2.17;0.43;;;17.50;99.90;;;;;;5031735;28;20034;-90
2022/06/24 15:13:07;;;;;;;2.72;0.50;;;17.50;99.90;;;;;;5015865;28;20018;-89
2022/06/24 15:15:55;;;;;;;;;;;;;;;;;;;;;
2022/06/24 15:18:30;;;;;;;1.45;0.60;;;17.70;99.90;;;;;;5029594;28;20482;-91
2022/06/24 15:20:55;;;;;;;1.20;0.55;;;17.70;99.90;;;;;;5021595;28;20027;-89
2022/06/24 15:23:23;;;;;;;1.23;0.40;;;17.90;99.90;;;;;;5006328;28;20568;-90
2022/06/24 15:25:49;;;;;;;0.63;0.30;;;18.00;99.90;;;;;;5013391;28;20087;-90
2022/06/24 15:28:35;;;;;;;1.88;0.63;;;18.10;99.90;;;;;;5000587;28;20018;-91
2022/06/24 15:31:40;;;;;;;2.97;0.43;;;18.20;99.90;;;;;;5015642;28;20021;-91
2022/06/24 15:34:23;;;;;;;1.08;0.43;;;18.30;99.90;;;;;;5003454;28;20036;-91
2022/06/24 15:36:49;;;;;;;0.70;0.40;;;18.40;99.90;;;;;;5025020;28;20042;-90
2022/06/24 15:39:18;;;;;;;1.70;0.40;;;18.40;99.90;;;;;;5009800;28;20161;-91
2022/06/24 15:41:50;;;;;;;1.15;0.47;;;18.50;99.90;;;;;;5012204;28;20030;-90
2022/06/24 15:44:15;;;;;;;1.77;0.52;;;18.40;99.90;;;;;;5015162;28;20038;-90
2022/06/24 15:46:47;;;;;;;0.63;0.40;;;18.50;99.90;;;;;;5042697;28;20465;-91
2022/06/24 15:49:27;;;;;;;1.10;0.43;;;18.60;99.90;;;;;;5009380;28;20481;-89
2022/06/24 15:51:58;;;;;;;1.58;0.30;;;18.70;99.90;;;;;;5014126;28;20516;-90
2022/06/24 15:54:31;;;;;;;1.52;0.50;;;18.70;99.90;;;;;;5013431;28;20021;-91
2022/06/24 15:56:57;;;;;;;2.78;0.60;;;18.60;99.90;;;;;;5005189;28;20030;-90
2022/06/24 15:59:23;;;;;;;1.15;0.38;;;18.90;99.90;;;;;;5019938;28;20021;-90
2022/06/24 16:01:48;;;;;;;0.73;0.30;;;18.80;99.90;;;;;;5011913;28;20398;-89
2022/06/24 16:04:17;;;;;;;1.05;0.40;;;18.90;99.90;;;;;;5014686;28;20482;-90
2022/06/24 16:06:42;;;;;;;1.08;0.43;;;18.90;99.90;;;;;;5033140;28;20060;-90
2022/06/24 16:09:11;;;;;;;0.88;0.43;;;19.00;99.90;;;;;;5022336;28;20645;-90
2022/06/24 16:11:36;;;;;;;1.45;0.50;;;19.10;99.90;;;;;;5038173;28;20015;-90
2022/06/24 16:14:02;;;;;;;1.75;0.40;;;19.10;99.90;;;;;;5031839;28;20026;-90
2022/06/24 16:16:33;;;;;;;1.05;0.47;;;19.00;99.90;;;;;;5017631;28;20085;-90
2022/06/24 16:19:02;;;;;;;2.15;0.82;;;18.90;99.90;;;;;;5036191;28;20041;-90
2022/06/24 16:21:28;;;;;;;2.08;0.50;;;19.00;99.90;;;;;;5014906;28;20026;-90
2022/06/24 16:23:53;;;;;;;3.00;0.60;;;19.00;99.90;;;;;;5031414;28;20026;-91
2022/06/24 16:29:06;;;;;;;1.38;0.60;;;18.80;99.90;;;;;;5029896;28;20040;-90
2022/06/24 16:31:31;;;;;;;0.98;0.32;;;18.70;99.90;;;;;;5015234;28;20054;-90
2022/06/24 16:33:57;;;;;;;0.90;0.43;;;18.60;99.90;;;;;;5017995;28;20026;-90
2022/06/24 16:36:23;;;;;;;1.30;0.60;;;18.50;99.90;;;;;;5031996;28;20039;-91
2022/06/24 16:38:51;;;;;;;1.08;0.45;;;18.40;99.90;;;;;;5032666;28;20029;-89
2022/06/24 16:41:21;;;;;;;1.63;0.47;;;18.40;99.90;;;;;;5030845;28;20057;-90
2022/06/24 16:43:50;;;;;;;3.65;0.90;;;18.40;99.90;;;;;;5039658;28;20024;-91
2022/06/24 16:46:19;;;;;;;1.77;0.55;;;18.20;99.90;;;;;;5020911;28;20123;-90
2022/06/24 16:48:45;;;;;;;2.00;0.60;;;18.10;99.90;;;;;;5018285;28;20022;-90
2022/06/24 16:51:14;;;;;;;2.05;0.50;;;18.20;99.90;;;;;;5027486;28;20021;-91
2022/06/24 16:54:06;;;;;;;2.90;0.68;;;18.10;99.90;;;;;;5020012;28;20033;-89
2022/06/24 16:56:32;;;;;;;1.00;0.40;;;18.00;99.90;;;;;;5012906;28;20112;-90
2022/06/24 16:59:15;;;;;;;2.13;0.47;;;18.00;99.90;;;;;;5012049;28;20053;-90
2022/06/24 17:01:46;;;;;;;1.20;0.30;;;17.90;99.90;;;;;;5014576;28;20036;-90
2022/06/24 17:04:12;;;;;;;2.60;0.63;;;17.90;99.90;;;;;;5015360;28;20072;-89
2022/06/24 17:06:45;;;;;;;0.40;0.20;;;17.90;99.90;;;;;;5035589;28;20037;-90
2022/06/24 17:09:11;;;;;;;1.50;0.43;;;17.70;99.90;;;;;;5036722;28;20013;-90
2022/06/24 17:11:36;;;;;;;2.20;0.50;;;17.70;99.90;;;;;;5007808;28;20022;-89
2022/06/24 17:14:02;;;;;;;1.25;0.50;;;17.80;99.90;;;;;;5021397;28;20014;-90
2022/06/24 17:16:40;;;;;;;0.63;0.30;;;17.80;99.90;;;;;;5017998;28;20026;-90
2022/06/24 17:19:14;;;;;;;0.80;0.30;;;17.70;99.90;;;;;;5028834;28;20030;-91
2022/06/24 17:21:49;;;;;;;1.10;0.30;;;17.70;99.90;;;;;;5015955;28;20036;-90
2022/06/24 17:24:39;;;;;;;1.17;0.40;;;17.70;99.90;;;;;;5017852;28;20033;-90
2022/06/24 17:27:13;;;;;;;1.23;0.50;;;17.70;99.90;;;;;;5014691;28;20057;-90
2022/06/24 17:29:54;;;;;;;1.17;0.40;;;17.80;99.90;;;;;;5025178;28;20042;-89
2022/06/24 17:32:56;;;;;;;0.95;0.40;;;17.70;99.90;;;;;;5035624;28;20489;-90
2022/06/24 17:35:35;;;;;;;;;;;;;;;;;;;;;
2022/06/24 17:38:32;;;;;;;2.05;0.40;;;17.60;99.90;;;;;;5039343;28;19975;-90
2022/06/24 17:41:09;;;;;;;0.85;0.70;;;17.50;99.90;;;;;;4999123;28;20085;-90
2022/06/24 17:43:45;;;;;;;0.65;0.32;;;17.60;99.90;;;;;;5014714;28;20029;-91
2022/06/24 17:46:34;;;;;;;;;;;;;;;;;;;;;
2022/06/24 17:52:34;;;;;;;1.20;0.30;;;17.30;99.90;;;;;;5030983;28;20670;-90
2022/06/24 19:12:54;;;;;;;0.40;0.20;;;17.20;99.90;;;;;;3922770;22;20049;-86
2022/06/24 19:15:20;;;;;;;0.80;0.30;;;17.30;99.90;;;;;;4992141;28;20026;-87
2022/06/24 19:17:45;;;;;;;1.33;0.43;;;17.30;99.90;;;;;;4978152;28;20033;-86
2022/06/24 19:20:11;;;;;;;1.45;0.30;;;17.30;99.90;;;;;;4979482;28;20025;-87
2022/06/24 19:22:54;;;;;;;0.77;0.30;;;17.50;99.90;;;;;;4980742;28;20423;-86
2022/06/24 19:25:20;;;;;;;1.02;0.30;;;17.40;99.90;;;;;;4996967;28;20040;-86
2022/06/24 19:27:46;;;;;;;1.27;0.30;;;17.40;99.90;;;;;;4993555;28;20106;-86
2022/06/24 19:30:12;;;;;;;0.85;0.20;;;17.40;99.90;;;;;;4987088;28;20023;-87
2022/06/24 19:32:38;;;;;;;0.50;0.30;;;17.40;99.90;;;;;;4984456;28;20542;-87
2022/06/24 19:35:05;;;;;;;0.50;0.20;;;17.30;99.90;;;;;;4990350;28;20073;-87
2022/06/24 19:37:51;;;;;;;1.85;0.32;;;17.40;99.90;;;;;;4984262;28;20066;-87
2022/06/24 19:40:33;;;;;;;0.55;0.22;;;17.40;99.90;;;;;;4968122;28;20030;-86
2022/06/24 19:43:30;;;;;;;1.15;0.40;;;17.40;99.90;;;;;;4975287;28;20033;-87
2022/06/24 19:46:18;;;;;;;1.20;0.30;;;17.30;99.90;;;;;;4987363;28;20675;-86
2022/06/24 19:49:09;;;;;;;1.20;0.40;;;17.40;99.90;;;;;;4981530;28;20035;-87
2022/06/24 19:54:41;;;;;;;4.10;0.30;;;17.40;99.90;;;;;;5004717;28;20088;-87
2022/06/24 19:57:33;;;;;;;3.03;1.30;;;17.40;99.90;;;;;;4981699;28;20026;-86
2022/06/24 20:00:26;;;;;;;0.80;0.30;;;17.50;99.90;;;;;;4978171;28;20026;-87
2022/06/24 20:09:47;;;;;;;1.00;0.40;;;17.30;99.90;;;;;;4982504;28;20019;-87
2022/06/24 20:12:43;;;;;;;1.60;0.35;;;17.40;99.90;;;;;;4996261;28;20063;-86
2022/06/24 20:18:28;;;;;;;1.25;0.45;;;17.10;99.90;;;;;;4994545;28;20078;-86
2022/06/24 20:21:12;;;;;;;1.10;0.60;;;17.10;99.90;;;;;;4979658;28;20030;-86
2022/06/24 20:24:15;;;;;;;0.80;0.30;;;17.10;99.90;;;;;;4977186;28;20035;-87
2022/06/24 20:26:59;;;;;;;0.63;0.30;;;17.00;99.90;;;;;;4977520;28;20034;-87
2022/06/24 20:29:25;;;;;;;1.38;0.30;;;16.80;99.90;;;;;;5030222;23;20050;-83
2022/06/24 20:31:50;;;;;;;1.08;0.32;;;16.80;99.90;;;;;;5029325;28;20029;-83
2022/06/24 20:34:16;;;;;;;1.55;0.50;;;16.80;99.90;;;;;;5046419;28;20018;-85
2022/06/24 20:36:43;;;;;;;1.05;0.40;;;16.70;99.90;;;;;;5037876;28;20033;-85
2022/06/24 20:39:10;;;;;;;1.13;0.38;;;16.60;99.90;;;;;;5041930;28;20017;-84
2022/06/24 20:41:36;;;;;;;1.52;0.40;;;16.40;99.90;;;;;;5033031;28;20022;-85
2022/06/24 20:44:01;;;;;;;0.90;0.30;;;16.20;99.90;;;;;;5016686;28;20021;-84
2022/06/24 20:46:27;;;;;;;1.95;0.40;;;16.20;99.90;;;;;;5038086;28;20045;-85
2022/06/24 20:48:53;;;;;;;1.02;0.45;;;17.10;99.90;;;;;;5037864;28;20071;-84
2022/06/24 20:51:18;;;;;;;0.80;0.40;;;16.10;99.90;;;;;;5038984;28;20185;-84
2022/06/24 20:53:44;;;;;;;1.73;0.60;;;17.00;99.90;;;;;;5033617;28;20040;-84
2022/06/24 20:56:10;;;;;;;0.90;0.40;;;16.00;99.90;;;;;;5016014;28;20030;-85
2022/06/24 20:58:36;;;;;;;1.40;0.38;;;16.00;99.90;;;;;;5037422;28;20162;-84
2022/06/24 21:01:03;;;;;;;1.15;0.38;;;16.30;99.90;;;;;;5037575;28;20026;-84
2022/06/24 21:03:29;;;;;;;0.90;0.40;;;16.10;99.90;;;;;;5041417;28;20075;-84
2022/06/24 21:05:54;;;;;;;2.10;0.73;;;16.90;99.90;;;;;;5041333;28;20030;-84
2022/06/24 21:08:20;;;;;;;1.20;0.50;;;16.00;99.90;;;;;;5014232;28;20030;-85
2022/06/24 21:10:46;;;;;;;1.85;0.40;;;16.00;99.90;;;;;;5038863;28;20034;-84
2022/06/24 21:13:11;;;;;;;1.33;0.70;;;16.00;99.90;;;;;;5042704;28;20482;-84
2022/06/24 21:15:38;;;;;;;1.20;0.40;;;16.00;99.90;;;;;;5044942;28;20036;-84
2022/06/24 21:18:04;;;;;;;1.00;0.40;;;16.00;99.90;;;;;;5034928;28;20057;-83
2022/06/24 21:20:30;;;;;;;1.58;0.50;;;16.00;99.90;;;;;;5042539;28;20022;-84
2022/06/24 21:22:56;;;;;;;1.85;0.40;;;15.90;99.90;;;;;;5032907;28;20044;-83
2022/06/24 21:25:22;;;;;;;1.00;0.50;;;15.90;99.90;;;;;;5024822;28;20030;-81
2022/06/24 21:27:51;;;;;;;0.80;0.30;;;15.90;99.90;;;;;;5036047;28;20037;-81
2022/06/24 21:30:17;;;;;;;0.60;0.40;;;16.00;99.90;;;;;;5032096;28;20061;-84
2022/06/24 21:32:42;;;;;;;1.13;0.47;;;16.00;99.90;;;;;;5016513;28;20504;-83
2022/06/24 21:35:09;;;;;;;1.20;0.50;;;16.00;99.90;;;;;;5038386;28;20029;-84
2022/06/24 21:37:37;;;;;;;1.63;0.43;;;16.10;99.90;;;;;;5034971;28;20124;-84
2022/06/24 21:40:03;;;;;;;1.13;0.30;;;16.10;99.90;;;;;;5025120;28;20518;-85
2022/06/24 21:42:29;;;;;;;0.88;0.30;;;16.10;99.90;;;;;;5017239;28;20450;-85
2022/06/24 21:44:56;;;;;;;1.45;0.60;;;16.10;99.90;;;;;;5040167;28;20052;-84
2022/06/24 21:47:24;;;;;;;1.20;0.40;;;16.10;99.90;;;;;;5041275;28;20014;-85
2022/06/24 21:49:51;;;;;;;1.23;0.50;;;16.00;99.90;;;;;;5039967;28;20025;-84
2022/06/24 21:52:18;;;;;;;0.43;0.30;;;16.00;99.90;;;;;;5036195;28;20060;-85
2022/06/24 21:54:43;;;;;;;0.80;0.40;;;16.00;99.90;;;;;;5040236;28;20064;-85
2022/06/24 21:57:09;;;;;;;0.73;0.32;;;15.90;99.90;;;;;;5022993;28;20025;-84
2022/06/24 21:59:34;;;;;;;1.05;0.40;;;15.90;99.90;;;;;;5020592;28;20068;-85